createdAt,value
2018-05-04T00:02:23.833Z,7.65
2018-05-04T00:04:53.907Z,7.28
2018-05-04T00:07:23.974Z,7.20
2018-05-04T00:09:53.270Z,7.50
2018-05-04T00:12:22.579Z,6.60
2018-05-04T00:14:51.861Z,6.78
2018-05-04T00:17:21.162Z,7.10
2018-05-04T00:19:51.267Z,7.43
2018-05-04T00:22:21.314Z,7.12
2018-05-04T00:24:51.380Z,8.02
2018-05-04T00:27:21.432Z,7.22
2018-05-04T00:29:50.743Z,6.72
2018-05-04T00:32:20.026Z,8.00
2018-05-04T00:34:49.340Z,8.00
2018-05-04T00:37:18.639Z,7.85
2018-05-04T00:39:47.942Z,8.45
2018-05-04T00:42:17.248Z,7.50
2018-05-04T00:44:46.536Z,7.70
2018-05-04T00:47:15.826Z,8.85
2018-05-04T00:49:45.145Z,7.53
2018-05-04T00:52:14.461Z,9.13
2018-05-04T00:54:43.755Z,9.13
2018-05-04T00:57:13.033Z,8.88
2018-05-04T00:59:42.328Z,8.75
2018-05-04T01:02:11.652Z,9.55
2018-05-04T01:04:40.927Z,10.02
2018-05-04T01:07:10.212Z,11.48
2018-05-04T01:09:39.535Z,10.18
2018-05-04T01:12:08.839Z,10.63
2018-05-04T01:14:38.132Z,11.40
2018-05-04T01:17:07.429Z,10.23
2018-05-04T01:19:36.723Z,11.65
2018-05-04T01:22:06.815Z,11.70
2018-05-04T01:24:36.127Z,12.00
2018-05-04T01:27:05.431Z,11.70
2018-05-04T01:29:34.783Z,11.65
2018-05-04T01:32:04.057Z,12.55
2018-05-04T01:34:33.362Z,11.40
2018-05-04T01:37:02.669Z,11.50
2018-05-04T01:39:31.969Z,11.27
2018-05-04T01:42:01.266Z,11.32
2018-05-04T01:44:30.570Z,10.75
2018-05-04T01:46:59.887Z,11.35
2018-05-04T01:49:29.188Z,11.90
2018-05-04T01:51:58.487Z,11.15
2018-05-04T01:54:27.788Z,11.52
2018-05-04T01:56:57.071Z,12.60
2018-05-04T01:59:26.389Z,13.02
2018-05-04T02:01:55.684Z,12.95
2018-05-04T02:04:25.015Z,11.93
2018-05-04T02:06:54.306Z,12.10
2018-05-04T02:09:23.612Z,12.50
2018-05-04T02:11:52.917Z,12.80
2018-05-04T02:14:23.072Z,11.95
2018-05-04T02:16:52.383Z,13.02
2018-05-04T02:19:21.728Z,12.90
2018-05-04T02:21:51.030Z,13.90
2018-05-04T02:24:20.313Z,12.23
2018-05-04T02:26:49.618Z,12.77
2018-05-04T02:29:18.932Z,12.10
2018-05-04T02:31:48.218Z,13.00
2018-05-04T02:34:17.506Z,12.00
2018-05-04T02:36:46.809Z,11.75
2018-05-04T02:39:16.116Z,12.57
2018-05-04T02:41:45.412Z,13.30
2018-05-04T02:44:14.723Z,13.02
2018-05-04T02:46:44.811Z,12.70
2018-05-04T02:49:14.533Z,11.55
2018-05-04T02:51:43.826Z,12.82
2018-05-04T02:54:13.138Z,14.15
2018-05-04T02:56:42.451Z,14.82
2018-05-04T02:59:11.781Z,13.35
2018-05-04T03:01:41.067Z,13.20
2018-05-04T03:04:10.342Z,11.80
2018-05-04T03:06:39.650Z,12.57
2018-05-04T03:09:08.937Z,12.32
2018-05-04T03:11:38.269Z,10.52
2018-05-04T03:14:07.566Z,12.30
2018-05-04T03:16:36.872Z,11.50
2018-05-04T03:19:06.169Z,11.43
2018-05-04T03:21:35.507Z,10.80
2018-05-04T03:24:08.039Z,11.32
2018-05-04T03:26:38.164Z,11.75
2018-05-04T03:29:07.505Z,11.68
2018-05-04T03:31:36.814Z,12.30
2018-05-04T03:34:06.884Z,11.25
2018-05-04T03:36:36.330Z,12.48
2018-05-04T03:39:06.745Z,11.73
2018-05-04T03:41:36.299Z,13.60
2018-05-04T03:44:05.572Z,12.55
2018-05-04T03:46:34.871Z,14.10
2018-05-04T03:49:04.164Z,13.23
2018-05-04T03:51:33.457Z,13.38
2018-05-04T03:54:03.262Z,12.27
2018-05-04T03:56:33.350Z,12.23
2018-05-04T03:59:20.425Z,12.00
2018-05-04T04:02:07.423Z,12.50
2018-05-04T04:04:37.498Z,11.95
2018-05-04T04:07:06.801Z,11.45
2018-05-04T04:09:36.154Z,12.15
2018-05-04T04:12:05.475Z,13.10
2018-05-04T04:14:34.760Z,11.80
2018-05-04T04:17:04.066Z,12.88
2018-05-04T04:19:33.358Z,12.82
2018-05-04T04:22:06.022Z,12.15
2018-05-04T04:24:35.343Z,12.50
2018-05-04T04:27:04.709Z,10.35
2018-05-04T04:29:34.015Z,11.65
2018-05-04T04:32:03.323Z,12.02
2018-05-04T04:34:33.435Z,12.75
2018-05-04T04:37:02.734Z,12.07
2018-05-04T04:39:32.016Z,10.77
2018-05-04T04:42:01.310Z,11.90
2018-05-04T04:44:30.628Z,11.80
2018-05-04T04:46:59.922Z,11.48
2018-05-04T04:49:29.218Z,11.18
2018-05-04T04:51:58.528Z,10.73
2018-05-04T04:54:27.819Z,10.77
2018-05-04T04:56:57.146Z,11.88
2018-05-04T04:59:26.481Z,11.75
2018-05-04T05:01:55.872Z,12.80
2018-05-04T05:04:25.120Z,13.00
2018-05-04T05:06:54.430Z,12.27
2018-05-04T05:09:23.730Z,10.98
2018-05-04T05:11:54.025Z,11.90
2018-05-04T05:14:23.325Z,11.60
2018-05-04T05:16:52.626Z,11.60
2018-05-04T05:19:21.916Z,11.73
2018-05-04T05:21:51.238Z,12.48
2018-05-04T05:24:20.509Z,10.43
2018-05-04T05:26:49.826Z,10.82
2018-05-04T05:29:23.186Z,10.77
2018-05-04T05:31:53.546Z,10.23
2018-05-04T05:34:22.861Z,10.70
2018-05-04T05:36:52.196Z,10.48
2018-05-04T05:39:21.492Z,10.77
2018-05-04T05:41:50.784Z,10.00
2018-05-04T05:44:20.084Z,9.65
2018-05-04T05:46:49.374Z,10.45
2018-05-04T05:49:19.894Z,10.50
2018-05-04T05:51:49.297Z,9.45
2018-05-04T05:54:20.860Z,9.57
2018-05-04T05:56:50.147Z,9.70
2018-05-04T05:59:19.445Z,9.70
2018-05-04T06:01:48.738Z,8.30
2018-05-04T06:04:18.291Z,8.73
2018-05-04T06:06:47.588Z,8.60
2018-05-04T06:09:16.876Z,8.10
2018-05-04T06:11:46.168Z,7.25
2018-05-04T06:14:15.480Z,7.12
2018-05-04T06:16:44.791Z,8.27
2018-05-04T06:19:14.086Z,8.05
2018-05-04T06:21:43.380Z,7.28
2018-05-04T06:24:12.687Z,7.00
2018-05-04T06:26:42.005Z,7.30
2018-05-04T06:29:12.044Z,6.20
2018-05-04T06:31:41.349Z,7.15
2018-05-04T06:34:10.674Z,5.93
2018-05-04T06:36:40.723Z,6.70
2018-05-04T06:39:10.087Z,6.97
2018-05-04T06:41:39.454Z,6.37
2018-05-04T06:44:09.528Z,6.15
2018-05-04T06:46:38.816Z,6.00
2018-05-04T06:49:08.115Z,5.37
2018-05-04T06:51:37.405Z,6.43
2018-05-04T06:54:06.705Z,5.72
2018-05-04T06:56:35.982Z,6.47
2018-05-04T06:59:05.285Z,5.62
2018-05-04T07:01:34.573Z,6.12
2018-05-04T07:04:04.634Z,5.53
2018-05-04T07:06:33.921Z,5.47
2018-05-04T07:09:03.287Z,5.05
2018-05-04T07:11:32.500Z,5.03
2018-05-04T07:14:02.444Z,5.72
2018-05-04T07:16:31.729Z,5.45
2018-05-04T07:19:01.016Z,4.70
2018-05-04T07:21:30.305Z,4.95
2018-05-04T07:23:59.598Z,6.00
2018-05-04T07:26:28.923Z,4.47
2018-05-04T07:28:58.188Z,5.20
2018-05-04T07:31:27.481Z,4.97
2018-05-04T07:33:56.764Z,5.55
2018-05-04T07:36:26.053Z,5.18
2018-05-04T07:38:55.365Z,4.95
2018-05-04T07:41:24.658Z,5.75
2018-05-04T07:43:53.958Z,5.65
2018-05-04T07:46:23.237Z,5.00
2018-05-04T07:48:52.549Z,4.62
2018-05-04T07:51:21.849Z,4.97
2018-05-04T07:53:51.152Z,5.57
2018-05-04T07:56:43.056Z,5.10
2018-05-04T07:59:12.349Z,5.30
2018-05-04T08:01:41.642Z,5.50
2018-05-04T08:04:10.938Z,5.70
2018-05-04T08:06:40.999Z,5.53
2018-05-04T08:09:10.349Z,6.60
2018-05-04T08:11:39.608Z,6.18
2018-05-04T08:14:08.912Z,5.82
2018-05-04T08:16:38.213Z,5.80
2018-05-04T08:19:07.505Z,5.50
2018-05-04T08:21:36.801Z,6.45
2018-05-04T08:24:06.085Z,5.68
2018-05-04T08:26:35.380Z,6.95
2018-05-04T08:29:04.683Z,6.30
2018-05-04T08:31:34.001Z,6.30
2018-05-04T08:34:03.291Z,6.15
2018-05-04T08:36:32.604Z,6.72
2018-05-04T08:39:02.046Z,6.87
2018-05-04T08:41:31.361Z,7.18
2018-05-04T08:44:00.659Z,7.15
2018-05-04T08:46:29.927Z,6.43
2018-05-04T08:48:59.242Z,7.60
2018-05-04T08:51:28.517Z,6.35
2018-05-04T08:53:57.823Z,6.75
2018-05-04T08:56:27.117Z,7.72
2018-05-04T08:58:56.427Z,8.10
2018-05-04T09:01:25.745Z,7.47
2018-05-04T09:03:55.035Z,7.50
2018-05-04T09:06:24.389Z,7.85
2018-05-04T09:08:53.683Z,7.85
2018-05-04T09:11:23.761Z,8.68
2018-05-04T09:13:53.062Z,9.65
2018-05-04T09:16:22.349Z,8.00
2018-05-04T09:18:51.629Z,7.82
2018-05-04T09:21:20.938Z,8.65
2018-05-04T09:23:50.232Z,8.55
2018-05-04T09:26:19.543Z,7.95
2018-05-04T09:28:48.841Z,9.25
2018-05-04T09:31:19.059Z,9.50
2018-05-04T09:33:48.385Z,8.30
2018-05-04T09:36:17.674Z,9.68
2018-05-04T09:38:46.979Z,9.00
2018-05-04T09:41:16.268Z,9.50
2018-05-04T09:43:45.605Z,9.50
2018-05-04T09:46:14.865Z,8.93
2018-05-04T09:48:44.145Z,10.07
2018-05-04T09:51:13.462Z,10.05
2018-05-04T09:53:42.768Z,9.63
2018-05-04T09:56:12.106Z,9.90
2018-05-04T09:58:41.344Z,10.10
2018-05-04T10:01:10.652Z,8.15
2018-05-04T10:03:39.990Z,10.15
2018-05-04T10:06:09.240Z,10.25
2018-05-04T10:08:38.562Z,10.70
2018-05-04T10:11:07.849Z,9.95
2018-05-04T10:13:37.187Z,9.10
2018-05-04T10:16:06.524Z,9.95
2018-05-04T10:18:35.839Z,11.40
2018-05-04T10:21:05.888Z,9.52
2018-05-04T10:23:35.193Z,10.82
2018-05-04T10:26:04.487Z,9.77
2018-05-04T10:28:33.788Z,10.23
2018-05-04T10:31:03.090Z,9.85
2018-05-04T10:33:33.248Z,9.13
2018-05-04T10:36:05.098Z,9.90
2018-05-04T10:38:36.251Z,9.35
2018-05-04T10:41:06.409Z,9.88
2018-05-04T10:43:36.761Z,9.50
2018-05-04T10:46:06.765Z,9.10
2018-05-04T10:48:36.548Z,9.90
2018-05-04T10:51:05.910Z,9.40
2018-05-04T10:53:35.883Z,8.88
2018-05-04T10:56:06.749Z,9.15
2018-05-04T10:58:44.867Z,10.73
2018-05-04T11:01:23.513Z,10.65
2018-05-04T11:04:05.608Z,9.48
2018-05-04T11:06:44.589Z,10.13
2018-05-04T11:09:19.514Z,10.20
2018-05-04T11:11:52.857Z,10.13
2018-05-04T11:14:36.152Z,10.63
2018-05-04T11:17:09.947Z,10.40
2018-05-04T11:19:43.158Z,10.40
2018-05-04T11:22:16.739Z,11.15
2018-05-04T11:24:57.973Z,10.90
2018-05-04T11:27:33.086Z,9.50
2018-05-04T11:30:06.672Z,11.65
2018-05-04T11:32:40.555Z,10.75
2018-05-04T11:35:14.843Z,11.70
2018-05-04T11:37:45.550Z,10.40
2018-05-04T11:40:27.978Z,10.45
2018-05-04T11:43:00.729Z,10.15
2018-05-04T11:45:30.252Z,10.38
2018-05-04T11:47:59.990Z,11.20
2018-05-04T11:50:30.301Z,12.43
2018-05-04T11:52:59.823Z,10.40
2018-05-04T11:55:29.502Z,9.63
2018-05-04T11:57:58.927Z,10.50
2018-05-04T12:00:29.131Z,10.63
2018-05-04T12:02:58.879Z,10.20
2018-05-04T12:05:29.118Z,12.20
2018-05-04T12:07:58.422Z,11.30
2018-05-04T12:10:28.021Z,11.95
2018-05-04T12:12:58.594Z,10.88
2018-05-04T12:15:28.320Z,10.73
2018-05-04T12:18:05.053Z,9.25
2018-05-04T12:20:38.596Z,10.10
2018-05-04T12:23:14.132Z,10.85
2018-05-04T12:25:45.443Z,10.68
2018-05-04T12:28:14.771Z,10.45
2018-05-04T12:30:44.079Z,18.70
2018-05-04T12:33:13.379Z,10.15
2018-05-04T12:35:42.679Z,10.35
2018-05-04T12:38:12.307Z,9.77
2018-05-04T12:40:44.212Z,11.25
2018-05-04T12:43:13.722Z,9.65
2018-05-04T12:45:43.302Z,9.15
2018-05-04T12:48:12.764Z,9.73
2018-05-04T12:50:42.079Z,9.65
2018-05-04T12:53:11.400Z,9.70
2018-05-04T12:55:41.511Z,10.27
2018-05-04T12:58:10.797Z,11.30
2018-05-04T13:00:40.103Z,9.95
2018-05-04T13:03:09.425Z,10.50
2018-05-04T13:05:38.709Z,12.23
2018-05-04T13:08:08.024Z,10.27
2018-05-04T13:10:37.322Z,10.70
2018-05-04T13:13:06.639Z,10.68
2018-05-04T13:15:37.449Z,10.35
2018-05-04T13:18:06.760Z,10.38
2018-05-04T13:20:36.395Z,10.55
2018-05-04T13:23:05.720Z,10.98
2018-05-04T13:25:35.500Z,11.05
2018-05-04T13:28:16.279Z,9.88
2018-05-04T13:30:58.678Z,9.65
2018-05-04T13:33:34.035Z,9.60
2018-05-04T13:36:16.164Z,9.85
2018-05-04T13:38:58.440Z,11.05
2018-05-04T13:41:28.757Z,11.43
2018-05-04T13:44:07.964Z,10.30
2018-05-04T13:46:47.235Z,9.65
2018-05-04T13:49:35.006Z,10.73
2018-05-04T13:57:41.920Z,11.07
2018-05-04T14:00:18.401Z,10.35
2018-05-04T14:02:52.738Z,10.05
2018-05-04T14:16:59.737Z,11.10
2018-05-04T14:19:47.772Z,9.90
2018-05-04T14:22:29.218Z,9.65
2018-05-04T14:25:18.571Z,9.05
2018-05-04T14:28:01.831Z,9.45
2018-05-04T14:33:25.468Z,10.45
2018-05-04T14:36:02.519Z,9.75
2018-05-04T14:38:50.357Z,9.07
2018-05-04T14:41:28.675Z,9.32
2018-05-04T14:44:15.478Z,10.27
2018-05-04T14:46:57.547Z,8.35
2018-05-04T14:49:37.436Z,8.68
2018-05-04T14:52:08.563Z,8.82
2018-05-04T14:54:59.061Z,7.80
2018-05-04T14:57:40.214Z,8.38
2018-05-04T15:00:28.325Z,8.55
2018-05-04T15:03:04.478Z,7.60
2018-05-04T15:05:38.355Z,9.38
2018-05-04T15:08:08.312Z,8.63
2018-05-04T15:13:38.624Z,8.70
2018-05-04T15:16:14.588Z,7.20
2018-05-04T15:21:28.841Z,7.50
2018-05-04T15:24:10.332Z,8.00
2018-05-04T15:26:45.086Z,7.80
2018-05-04T15:32:38.221Z,7.72
2018-05-04T15:38:55.398Z,8.32
2018-05-04T15:41:44.218Z,7.70
2018-05-04T15:44:24.288Z,7.62
2018-05-04T15:47:09.046Z,7.80
2018-05-04T15:49:51.526Z,8.15
2018-05-04T15:52:26.724Z,7.40
2018-05-04T16:00:24.745Z,7.68
2018-05-04T16:03:28.049Z,8.65
2018-05-04T16:06:11.232Z,7.87
2018-05-04T16:11:30.497Z,8.02
2018-05-04T16:14:10.284Z,8.10
2018-05-04T16:16:43.758Z,6.82
2018-05-04T16:22:39.926Z,7.32
2018-05-04T16:27:57.376Z,6.18
2018-05-04T16:30:49.903Z,6.10
2018-05-04T16:36:29.545Z,5.70
2018-05-04T16:39:21.619Z,5.62
2018-05-04T16:42:15.291Z,5.78
2018-05-04T16:45:13.867Z,4.87
2018-05-04T16:48:07.383Z,5.22
2018-05-04T16:54:05.334Z,4.95
2018-05-04T17:10:21.778Z,4.50
2018-05-04T17:12:54.740Z,5.60
2018-05-04T17:15:36.294Z,4.57
2018-05-04T17:21:00.789Z,3.85
2018-05-04T17:23:36.628Z,4.37
2018-05-04T17:26:15.638Z,4.90
2018-05-04T17:28:57.917Z,3.75
2018-05-04T17:31:37.030Z,4.70
2018-05-04T17:34:14.184Z,4.30
2018-05-04T17:37:10.516Z,4.70
2018-05-04T17:40:13.018Z,4.40
2018-05-04T17:43:06.060Z,4.60
2018-05-04T17:46:15.273Z,4.57
2018-05-04T17:54:43.489Z,4.35
2018-05-04T17:57:33.393Z,4.90
2018-05-04T18:17:42.356Z,3.70
2018-05-04T18:20:29.936Z,4.53
2018-05-04T18:23:34.024Z,4.43
2018-05-04T18:26:18.301Z,4.37
2018-05-04T18:29:08.092Z,4.30
2018-05-04T18:34:45.245Z,4.12
2018-05-04T18:40:16.276Z,4.50
2018-05-04T18:42:57.567Z,4.93
2018-05-04T18:45:43.236Z,4.75
2018-05-04T18:48:20.595Z,4.28
2018-05-04T18:56:52.964Z,3.70
2018-05-04T18:59:46.457Z,4.53
2018-05-04T19:02:54.480Z,4.25
2018-05-04T19:05:40.566Z,4.25
2018-05-04T19:08:25.277Z,4.20
2018-05-04T19:23:20.333Z,4.72
2018-05-04T19:26:04.286Z,3.75
2018-05-04T19:31:37.374Z,5.40
2018-05-04T19:37:42.791Z,5.07
2018-05-04T19:45:38.945Z,4.32
2018-05-04T19:48:22.739Z,4.90
2018-05-04T19:51:01.310Z,5.07
2018-05-04T19:53:47.527Z,5.85
2018-05-04T19:56:27.367Z,4.90
2018-05-04T20:02:11.173Z,4.05
2018-05-04T20:04:51.303Z,4.60
2018-05-04T20:07:32.459Z,4.68
2018-05-04T20:10:13.806Z,3.75
2018-05-04T20:13:00.810Z,3.78
2018-05-04T20:15:54.823Z,4.32
2018-05-04T20:18:37.744Z,3.85
2018-05-04T20:21:20.542Z,3.60
2018-05-04T20:24:54.380Z,4.32
2018-05-04T20:30:25.874Z,3.87
2018-05-04T20:33:11.086Z,3.87
2018-05-04T20:35:53.747Z,3.95
2018-05-04T20:38:49.458Z,4.30
2018-05-04T20:44:49.887Z,4.70
2018-05-04T20:53:09.674Z,4.45
2018-05-04T20:55:50.803Z,4.47
2018-05-04T21:01:54.064Z,4.07
2018-05-04T21:04:45.327Z,4.50
2018-05-04T21:10:07.279Z,4.70
2018-05-04T21:13:03.775Z,4.90
2018-05-04T21:16:07.925Z,3.62
2018-05-04T21:41:15.044Z,4.07
2018-05-04T21:43:58.997Z,3.97
2018-05-04T21:52:44.253Z,4.55
2018-05-04T21:55:42.183Z,3.83
2018-05-04T21:58:36.893Z,3.72
2018-05-04T22:01:29.150Z,3.67
2018-05-04T22:07:10.586Z,4.28
2018-05-04T22:09:56.645Z,4.40
2018-05-04T22:18:31.454Z,3.80
2018-05-04T22:24:15.851Z,4.65
2018-05-04T22:27:18.846Z,3.45
2018-05-04T22:33:43.432Z,4.80
2018-05-04T22:36:42.865Z,4.47
2018-05-04T22:45:50.819Z,3.80
2018-05-04T22:51:57.750Z,3.95
2018-05-04T22:55:00.276Z,3.92
2018-05-04T22:57:51.732Z,4.20
2018-05-04T23:04:16.519Z,3.92
2018-05-04T23:09:51.799Z,4.03
2018-05-04T23:12:35.245Z,4.85
2018-05-04T23:15:26.180Z,4.60
2018-05-04T23:27:58.844Z,4.37
2018-05-04T23:31:07.305Z,4.35
2018-05-04T23:45:54.880Z,4.50
2018-05-04T23:48:53.462Z,4.82
2018-05-04T23:51:53.262Z,4.50
2018-05-04T23:54:36.041Z,3.87
2018-05-04T23:57:28.663Z,4.90
